createdAt,value
2023-05-09T00:00:20.184Z,89.80
2023-05-09T00:03:22.186Z,89.80
2023-05-09T00:06:24.070Z,90.00
2023-05-09T00:09:25.672Z,90.00
2023-05-09T00:12:28.395Z,90.20
2023-05-09T00:15:30.481Z,90.10
2023-05-09T00:18:33.978Z,90.10
2023-05-09T00:21:35.779Z,90.00
2023-05-09T00:24:37.356Z,90.00
2023-05-09T00:27:39.062Z,89.90
2023-05-09T00:30:41.003Z,90.00
2023-05-09T00:33:42.614Z,90.10
2023-05-09T00:36:44.195Z,90.10
2023-05-09T00:39:46.097Z,90.10
2023-05-09T00:42:47.768Z,89.90
2023-05-09T00:45:49.623Z,89.80
2023-05-09T00:48:52.314Z,89.80
2023-05-09T00:51:55.708Z,89.90
2023-05-09T00:54:57.676Z,90.20
2023-05-09T00:57:59.394Z,90.40
2023-05-09T01:01:02.265Z,90.50
2023-05-09T01:04:04.417Z,90.40
2023-05-09T01:07:20.995Z,90.30
2023-05-09T01:10:50.843Z,90.00
2023-05-09T01:14:09.355Z,90.20
2023-05-09T01:17:19.319Z,90.10
2023-05-09T01:20:33.671Z,90.00
2023-05-09T01:23:44.460Z,89.80
2023-05-09T01:27:23.480Z,89.70
2023-05-09T01:30:26.595Z,89.60
2023-05-09T01:33:31.717Z,89.60
2023-05-09T01:36:36.969Z,89.50
2023-05-09T01:39:41.179Z,89.50
2023-05-09T01:42:45.806Z,89.60
2023-05-09T01:45:48.962Z,89.60
2023-05-09T01:48:51.419Z,89.60
2023-05-09T01:51:54.917Z,89.60
2023-05-09T01:54:57.692Z,89.70
2023-05-09T01:58:00.963Z,90.00
2023-05-09T02:01:03.229Z,90.00
2023-05-09T02:04:05.501Z,90.00
2023-05-09T02:07:08.094Z,90.00
2023-05-09T02:10:11.312Z,90.30
2023-05-09T02:13:12.967Z,90.60
2023-05-09T02:16:15.369Z,91.30
2023-05-09T02:19:17.461Z,91.70
2023-05-09T02:22:19.064Z,92.20
2023-05-09T02:25:20.797Z,92.30
2023-05-09T02:28:25.380Z,92.50
2023-05-09T02:31:28.349Z,92.40
2023-05-09T02:34:30.029Z,92.50
2023-05-09T02:37:32.373Z,92.60
2023-05-09T02:40:34.341Z,92.30
2023-05-09T02:43:35.941Z,92.10
2023-05-09T02:46:37.991Z,92.70
2023-05-09T02:49:39.631Z,93.00
2023-05-09T02:52:41.323Z,93.10
2023-05-09T02:55:42.965Z,93.00
2023-05-09T02:58:50.875Z,93.30
2023-05-09T03:01:52.554Z,93.30
2023-05-09T03:04:54.221Z,94.20
2023-05-09T03:07:55.780Z,94.60
2023-05-09T03:10:57.489Z,94.50
2023-05-09T03:13:59.068Z,94.50
2023-05-09T03:17:00.783Z,94.90
2023-05-09T03:20:05.457Z,94.90
2023-05-09T03:23:07.108Z,94.80
2023-05-09T03:26:08.715Z,95.10
2023-05-09T03:29:10.366Z,95.10
2023-05-09T03:32:13.885Z,94.70
2023-05-09T03:35:16.896Z,94.60
2023-05-09T03:38:18.584Z,95.00
2023-05-09T03:41:21.035Z,95.10
2023-05-09T03:44:22.665Z,95.60
2023-05-09T03:47:24.338Z,95.50
2023-05-09T03:50:25.923Z,95.50
2023-05-09T03:53:27.502Z,95.30
2023-05-09T03:56:29.132Z,95.10
2023-05-09T03:59:30.758Z,94.90
2023-05-09T04:02:36.009Z,94.80
2023-05-09T04:05:37.971Z,94.50
2023-05-09T04:08:39.656Z,94.30
2023-05-09T04:11:41.404Z,94.00
2023-05-09T04:14:45.626Z,93.80
2023-05-09T04:17:48.407Z,93.80
2023-05-09T04:20:50.023Z,94.10
2023-05-09T04:23:51.615Z,94.50
2023-05-09T04:26:53.236Z,94.60
2023-05-09T04:29:55.036Z,94.80
2023-05-09T04:32:56.699Z,94.90
2023-05-09T04:35:58.572Z,94.90
2023-05-09T04:39:00.189Z,94.50
2023-05-09T04:42:02.605Z,94.10
2023-05-09T04:45:05.573Z,93.90
2023-05-09T04:48:07.202Z,93.60
2023-05-09T04:51:09.306Z,93.10
2023-05-09T04:54:10.982Z,92.80
2023-05-09T04:57:17.978Z,92.50
2023-05-09T05:00:21.325Z,92.20
2023-05-09T05:03:23.019Z,91.20
2023-05-09T05:06:24.589Z,91.20
2023-05-09T05:09:26.173Z,91.30
2023-05-09T05:12:27.753Z,91.40
2023-05-09T05:15:29.446Z,91.20
2023-05-09T05:18:31.119Z,91.60
2023-05-09T05:21:32.791Z,91.80
2023-05-09T05:24:34.404Z,92.00
2023-05-09T05:27:36.042Z,91.40
2023-05-09T05:30:37.684Z,90.50
2023-05-09T05:33:39.250Z,89.60
2023-05-09T05:36:40.817Z,88.60
2023-05-09T05:39:42.539Z,87.10
2023-05-09T05:42:44.284Z,86.00
2023-05-09T05:45:45.846Z,85.40
2023-05-09T05:48:47.482Z,85.00
2023-05-09T05:51:49.026Z,84.60
2023-05-09T05:54:50.600Z,84.40
2023-05-09T05:57:52.248Z,84.00
2023-05-09T06:00:53.835Z,83.30
2023-05-09T06:03:56.032Z,83.10
2023-05-09T06:06:58.033Z,82.10
2023-05-09T06:09:59.606Z,82.30
2023-05-09T06:13:01.269Z,81.80
2023-05-09T06:16:15.042Z,81.20
2023-05-09T06:19:19.956Z,81.10
2023-05-09T06:22:21.547Z,81.50
2023-05-09T06:25:23.089Z,81.00
2023-05-09T06:28:24.677Z,80.60
2023-05-09T06:31:26.290Z,80.50
2023-05-09T06:34:27.908Z,80.10
2023-05-09T06:37:33.793Z,80.30
2023-05-09T06:40:35.505Z,79.00
2023-05-09T06:43:37.155Z,78.40
2023-05-09T06:46:38.921Z,78.20
2023-05-09T06:49:40.633Z,78.10
2023-05-09T06:52:42.322Z,77.50
2023-05-09T06:55:44.358Z,77.00
2023-05-09T06:58:46.030Z,76.80
2023-05-09T07:01:47.670Z,76.20
2023-05-09T07:04:49.352Z,76.10
2023-05-09T07:07:51.146Z,76.70
2023-05-09T07:10:52.731Z,76.60
2023-05-09T07:13:54.422Z,76.70
2023-05-09T07:17:05.231Z,76.80
2023-05-09T07:20:15.962Z,76.90
2023-05-09T07:23:17.664Z,76.80
2023-05-09T07:26:19.535Z,77.10
2023-05-09T07:29:21.572Z,77.20
2023-05-09T07:32:23.192Z,77.20
2023-05-09T07:35:24.813Z,76.60
2023-05-09T07:38:26.585Z,76.00
2023-05-09T07:41:28.176Z,75.20
2023-05-09T07:44:29.798Z,75.40
2023-05-09T07:47:34.343Z,75.10
2023-05-09T07:50:36.037Z,74.90
2023-05-09T07:53:37.580Z,73.80
2023-05-09T07:56:39.223Z,72.90
2023-05-09T07:59:41.042Z,73.10
2023-05-09T08:02:42.789Z,73.20
2023-05-09T08:05:44.506Z,72.30
2023-05-09T08:08:46.210Z,72.20
2023-05-09T08:11:47.828Z,72.30
2023-05-09T08:14:49.455Z,72.70
2023-05-09T08:17:51.572Z,72.60
2023-05-09T08:20:53.226Z,73.00
2023-05-09T08:23:55.651Z,73.40
2023-05-09T08:26:57.210Z,73.90
2023-05-09T08:29:59.336Z,73.90
2023-05-09T08:33:00.907Z,74.00
2023-05-09T08:36:03.058Z,73.80
2023-05-09T08:39:04.632Z,73.50
2023-05-09T08:42:07.239Z,73.20
2023-05-09T08:45:15.029Z,72.30
2023-05-09T08:48:17.320Z,71.80
2023-05-09T08:51:20.022Z,72.00
2023-05-09T08:54:25.210Z,71.80
2023-05-09T08:57:31.765Z,71.00
2023-05-09T09:00:33.979Z,71.20
2023-05-09T09:03:38.129Z,71.00
2023-05-09T09:06:41.033Z,70.90
2023-05-09T09:09:48.829Z,71.30
2023-05-09T09:12:53.040Z,71.00
2023-05-09T09:15:58.234Z,71.10
2023-05-09T09:19:00.558Z,70.50
2023-05-09T09:22:04.919Z,70.20
2023-05-09T09:25:06.735Z,69.70
2023-05-09T09:28:08.306Z,69.30
2023-05-09T09:31:21.182Z,68.60
2023-05-09T09:34:23.655Z,67.70
2023-05-09T09:37:25.477Z,67.10
2023-05-09T09:40:27.111Z,67.30
2023-05-09T09:43:30.120Z,66.50
2023-05-09T09:46:51.122Z,66.50
2023-05-09T09:49:52.792Z,65.60
2023-05-09T09:52:56.050Z,64.80
2023-05-09T09:55:58.547Z,63.70
2023-05-09T09:59:29.611Z,63.00
2023-05-09T10:02:31.351Z,62.60
2023-05-09T10:05:34.399Z,63.20
2023-05-09T10:08:36.102Z,62.10
2023-05-09T10:11:37.690Z,59.70
2023-05-09T10:14:41.917Z,60.30
2023-05-09T10:17:43.729Z,60.00
2023-05-09T10:20:46.736Z,59.40
2023-05-09T10:23:52.223Z,59.90
2023-05-09T10:27:00.537Z,60.00
2023-05-09T10:30:04.860Z,60.30
2023-05-09T10:33:11.702Z,60.90
2023-05-09T10:36:16.905Z,62.00
2023-05-09T10:39:19.377Z,62.40
2023-05-09T10:42:22.923Z,62.20
2023-05-09T10:45:24.888Z,61.90
2023-05-09T10:48:26.797Z,61.60
2023-05-09T10:51:29.155Z,61.60
2023-05-09T10:54:33.489Z,61.80
2023-05-09T10:57:39.370Z,62.10
2023-05-09T11:00:42.391Z,63.10
2023-05-09T11:03:59.237Z,63.70
2023-05-09T11:07:00.975Z,62.50
2023-05-09T11:10:19.797Z,61.90
2023-05-09T11:13:25.878Z,63.10
2023-05-09T11:16:27.816Z,63.80
2023-05-09T11:19:55.779Z,61.90
2023-05-09T11:22:58.830Z,62.60
2023-05-09T11:26:08.168Z,62.00
2023-05-09T11:29:10.085Z,60.90
2023-05-09T11:32:14.858Z,59.20
2023-05-09T11:35:21.504Z,59.40
2023-05-09T11:38:23.219Z,58.90
2023-05-09T11:41:25.602Z,59.60
2023-05-09T11:44:28.167Z,57.70
2023-05-09T11:47:30.757Z,57.20
2023-05-09T11:50:32.638Z,57.50
2023-05-09T11:53:34.427Z,56.90
2023-05-09T11:56:38.081Z,55.50
2023-05-09T11:59:39.748Z,55.50
2023-05-09T12:02:45.198Z,56.60
2023-05-09T12:05:48.557Z,56.80
2023-05-09T12:08:50.484Z,56.30
2023-05-09T12:11:52.582Z,54.60
2023-05-09T12:14:54.608Z,53.40
2023-05-09T12:18:07.866Z,52.80
2023-05-09T12:21:09.742Z,52.60
2023-05-09T12:24:11.503Z,52.50
2023-05-09T12:27:13.740Z,52.40
2023-05-09T12:30:16.179Z,53.40
2023-05-09T12:33:18.482Z,53.30
2023-05-09T12:36:20.814Z,52.60
2023-05-09T12:39:23.031Z,53.30
2023-05-09T12:42:28.259Z,53.40
2023-05-09T12:45:32.917Z,52.80
2023-05-09T12:48:37.830Z,52.60
2023-05-09T12:51:50.060Z,53.10
2023-05-09T12:54:53.255Z,53.70
2023-05-09T12:58:03.179Z,54.00
2023-05-09T13:01:05.650Z,53.20
2023-05-09T13:04:07.778Z,53.60
2023-05-09T13:07:10.428Z,54.00
2023-05-09T13:10:21.599Z,52.80
2023-05-09T13:13:26.626Z,53.00
2023-05-09T13:16:28.640Z,52.80
2023-05-09T13:19:30.298Z,53.20
2023-05-09T13:22:32.630Z,53.80
2023-05-09T13:25:34.190Z,53.10
2023-05-09T13:28:35.808Z,51.40
2023-05-09T13:31:37.422Z,52.90
2023-05-09T13:34:39.004Z,51.70
2023-05-09T13:37:40.636Z,51.80
2023-05-09T13:40:42.250Z,51.50
2023-05-09T13:43:43.829Z,51.30
2023-05-09T13:46:45.947Z,50.60
2023-05-09T13:49:47.631Z,51.50
2023-05-09T13:52:49.920Z,51.50
2023-05-09T13:55:52.000Z,51.40
2023-05-09T13:58:53.964Z,52.70
2023-05-09T14:01:57.489Z,53.10
2023-05-09T14:04:59.143Z,53.50
2023-05-09T14:08:01.676Z,53.00
2023-05-09T14:11:03.307Z,53.60
2023-05-09T14:14:04.928Z,53.00
2023-05-09T14:17:06.529Z,52.70
2023-05-09T14:20:08.688Z,52.60
2023-05-09T14:23:10.357Z,53.00
2023-05-09T14:26:12.003Z,53.60
2023-05-09T14:29:13.614Z,55.00
2023-05-09T14:32:15.255Z,55.30
2023-05-09T14:35:17.097Z,56.80
2023-05-09T14:38:18.862Z,57.30
2023-05-09T14:41:21.471Z,58.40
2023-05-09T14:44:24.938Z,60.40
2023-05-09T14:47:26.596Z,60.90
2023-05-09T14:50:28.395Z,61.10
2023-05-09T14:53:30.667Z,61.10
2023-05-09T14:56:32.503Z,61.50
2023-05-09T14:59:36.861Z,61.90
2023-05-09T15:02:40.010Z,62.00
2023-05-09T15:05:42.116Z,62.60
2023-05-09T15:08:43.772Z,62.80
2023-05-09T15:11:48.607Z,63.50
2023-05-09T15:14:53.813Z,63.70
2023-05-09T15:17:55.446Z,64.40
2023-05-09T15:20:57.390Z,64.20
2023-05-09T15:23:59.292Z,63.90
2023-05-09T15:27:00.909Z,64.30
2023-05-09T15:30:03.023Z,63.50
2023-05-09T15:33:04.674Z,63.90
2023-05-09T15:36:06.817Z,63.70
2023-05-09T15:39:08.562Z,64.20
2023-05-09T15:42:12.194Z,64.00
2023-05-09T15:45:13.768Z,64.80
2023-05-09T15:48:16.058Z,65.90
2023-05-09T15:51:17.619Z,66.50
2023-05-09T15:54:19.514Z,67.40
2023-05-09T15:57:21.218Z,66.10
2023-05-09T16:00:23.369Z,66.40
2023-05-09T16:03:25.600Z,66.90
2023-05-09T16:06:28.520Z,65.60
2023-05-09T16:09:30.118Z,65.70
2023-05-09T16:12:32.907Z,66.10
2023-05-09T16:15:35.014Z,66.60
2023-05-09T16:18:36.644Z,67.10
2023-05-09T16:21:39.202Z,68.30
2023-05-09T16:24:40.869Z,69.20
2023-05-09T16:27:42.518Z,69.10
2023-05-09T16:30:44.204Z,69.60
2023-05-09T16:33:46.939Z,70.40
2023-05-09T16:36:48.508Z,70.50
2023-05-09T16:39:50.158Z,71.30
2023-05-09T16:42:53.083Z,71.90
2023-05-09T16:45:54.708Z,72.30
2023-05-09T16:48:56.344Z,72.60
2023-05-09T16:51:58.003Z,72.50
2023-05-09T16:54:59.601Z,72.70
2023-05-09T16:58:01.658Z,72.90
2023-05-09T17:01:03.673Z,72.20
2023-05-09T17:04:06.684Z,71.50
2023-05-09T17:07:08.732Z,71.10
2023-05-09T17:10:11.026Z,71.10
2023-05-09T17:13:12.632Z,71.00
2023-05-09T17:16:14.427Z,71.20
2023-05-09T17:19:16.798Z,72.80
2023-05-09T17:22:18.921Z,71.90
2023-05-09T17:25:20.648Z,72.10
2023-05-09T17:28:22.291Z,72.60
2023-05-09T17:31:23.898Z,73.00
2023-05-09T17:34:26.290Z,72.50
2023-05-09T17:37:27.889Z,73.90
2023-05-09T17:40:29.594Z,76.40
2023-05-09T17:43:31.881Z,77.90
2023-05-09T17:46:33.586Z,79.20
2023-05-09T17:49:36.415Z,81.00
2023-05-09T17:52:38.134Z,82.10
2023-05-09T17:55:41.121Z,83.50
2023-05-09T17:58:42.722Z,85.30
2023-05-09T18:01:44.388Z,86.10
2023-05-09T18:04:46.287Z,84.20
2023-05-09T18:07:47.879Z,86.60
2023-05-09T18:10:49.714Z,88.90
2023-05-09T18:13:51.481Z,89.80
2023-05-09T18:16:53.075Z,89.60
2023-05-09T18:19:54.662Z,90.10
2023-05-09T18:22:57.090Z,88.80
2023-05-09T18:25:58.726Z,88.60
2023-05-09T18:29:00.312Z,88.50
2023-05-09T18:32:02.119Z,87.30
2023-05-09T18:35:04.427Z,87.30
2023-05-09T18:38:06.396Z,88.10
2023-05-09T18:41:09.543Z,86.80
2023-05-09T18:44:11.122Z,87.20
2023-05-09T18:47:13.111Z,87.90
2023-05-09T18:50:15.115Z,87.00
2023-05-09T18:53:16.880Z,87.50
2023-05-09T18:56:21.274Z,88.00
2023-05-09T18:59:23.458Z,87.70
2023-05-09T19:02:25.383Z,87.00
2023-05-09T19:05:27.501Z,87.10
2023-05-09T19:08:29.240Z,87.80
2023-05-09T19:11:31.053Z,88.20
2023-05-09T19:14:32.657Z,88.50
2023-05-09T19:17:34.555Z,88.70
2023-05-09T19:20:36.752Z,88.20
2023-05-09T19:23:39.130Z,88.50
2023-05-09T19:26:40.791Z,89.00
2023-05-09T19:29:42.407Z,88.90
2023-05-09T19:32:44.470Z,88.90
2023-05-09T19:35:46.171Z,88.90
2023-05-09T19:38:47.785Z,89.30
2023-05-09T19:41:49.570Z,89.40
2023-05-09T19:44:52.416Z,89.00
2023-05-09T19:47:55.077Z,89.10
2023-05-09T19:50:58.494Z,88.70
2023-05-09T19:54:00.312Z,89.10
2023-05-09T19:57:02.465Z,89.50
2023-05-09T20:00:06.874Z,89.90
2023-05-09T20:03:08.715Z,89.80
2023-05-09T20:06:11.088Z,90.00
2023-05-09T20:09:13.447Z,90.60
2023-05-09T20:12:15.148Z,90.90
2023-05-09T20:15:17.174Z,91.50
2023-05-09T20:18:18.927Z,91.70
2023-05-09T20:21:20.575Z,91.90
2023-05-09T20:24:22.277Z,91.80
2023-05-09T20:27:23.863Z,92.00
2023-05-09T20:30:25.467Z,92.60
2023-05-09T20:33:27.106Z,92.90
2023-05-09T20:36:28.760Z,93.20
2023-05-09T20:39:30.467Z,93.40
2023-05-09T20:42:32.901Z,93.70
2023-05-09T20:45:37.147Z,94.00
2023-05-09T20:48:38.772Z,94.50
2023-05-09T20:51:40.499Z,94.70
2023-05-09T20:54:42.221Z,94.70
2023-05-09T20:57:44.032Z,94.90
2023-05-09T21:00:46.895Z,95.10
2023-05-09T21:03:48.594Z,95.30
2023-05-09T21:06:50.269Z,95.40
2023-05-09T21:09:52.014Z,95.60
2023-05-09T21:12:53.626Z,95.70
2023-05-09T21:15:55.223Z,95.70
2023-05-09T21:18:57.958Z,95.80
2023-05-09T21:21:59.541Z,96.00
2023-05-09T21:25:01.261Z,96.00
2023-05-09T21:28:02.892Z,96.10
2023-05-09T21:31:04.816Z,96.20
2023-05-09T21:34:09.901Z,96.20
2023-05-09T21:37:11.737Z,96.20
2023-05-09T21:40:13.992Z,96.40
2023-05-09T21:43:17.972Z,96.60
2023-05-09T21:46:19.625Z,96.80
2023-05-09T21:49:21.769Z,96.80
2023-05-09T21:52:23.573Z,97.00
2023-05-09T21:55:25.313Z,97.10
2023-05-09T21:58:26.898Z,97.10
2023-05-09T22:01:28.606Z,97.10
2023-05-09T22:04:30.270Z,97.10
2023-05-09T22:07:32.006Z,97.20
2023-05-09T22:10:34.047Z,97.20
2023-05-09T22:13:36.323Z,97.20
2023-05-09T22:16:38.152Z,97.30
2023-05-09T22:19:40.526Z,97.50
2023-05-09T22:22:42.188Z,97.50
2023-05-09T22:25:43.899Z,97.60
2023-05-09T22:28:45.598Z,97.60
2023-05-09T22:31:47.257Z,97.50
2023-05-09T22:34:48.976Z,97.50
2023-05-09T22:37:50.829Z,97.80
2023-05-09T22:40:52.420Z,98.00
2023-05-09T22:43:54.010Z,97.80
2023-05-09T22:46:55.610Z,96.60
2023-05-09T22:49:57.244Z,94.90
2023-05-09T22:52:58.800Z,93.10
2023-05-09T22:56:00.424Z,93.80
2023-05-09T22:59:02.095Z,95.20
2023-05-09T23:02:04.172Z,95.40
2023-05-09T23:05:06.394Z,96.30
2023-05-09T23:08:07.986Z,96.70
2023-05-09T23:11:09.629Z,97.20
2023-05-09T23:14:11.278Z,97.60
2023-05-09T23:17:12.974Z,97.70
2023-05-09T23:20:14.726Z,98.00
2023-05-09T23:23:16.844Z,98.00
2023-05-09T23:26:18.566Z,97.90
2023-05-09T23:29:20.308Z,97.90
2023-05-09T23:32:21.975Z,97.60
2023-05-09T23:35:23.678Z,97.20
2023-05-09T23:38:25.263Z,96.70
2023-05-09T23:41:26.833Z,96.40
2023-05-09T23:44:28.550Z,96.20
2023-05-09T23:47:30.424Z,96.10
2023-05-09T23:50:32.025Z,95.90
2023-05-09T23:53:35.067Z,96.20
2023-05-09T23:56:36.746Z,96.30
2023-05-09T23:59:38.400Z,96.60
